Ana Sayfa
METAR-TAF:

METAR-TAF

Havaalanları :

Virginia Highlands Airport

Abingdon, Virginia, Amerika Birleşik Devletleri

Enlem: 36-41N, Boylam: 082-02W, yükseklik: 631 m

Güncel hava durumu gözlemi

Rapor saat 05:15 UTC de 13 dakika önce yapıldı.
Sakin rüzgar
Sıcaklık -5°C
Nem 93%
Basınç 1026 hPa
Görüş mesafesi: 16.1 km
2500 ft yükseklikte çok bulutlu

METAR: KVJI 220515Z AUTO 00000KT 10SM OVC025 M05/M06 A3030 RMK AO2 T10521063

Saat: 00:28 (05:28 UTC)


TAF: eksik

4.000'den fazla havaalanı için hava durumu gözlemleri ve tahminleri (METAR ve TAF raporları).

Kullanılabilir istasyonlar harita üzerinde sarı ve kırmızı noktalarla gösterilir.

İstasyonun adını görmek için fareyi noktanın üzerinde gezdirin.

Sonrasında hava gözlem ve tahminlerini görmek için tıklayın.

Haritayı değiştirmek için: yaklaştırmak için siyah artı işaretli yeşil düğmeye ve uzaklaştırmak için de eksi işaretli düğmeye hızla tıklayın; bitişik haritalar için yeşil okları kullanın.


METAR-TAF: